Time;durP1;ratioP1;P1;durP2;ratioP2;P2;SDS_P1;SDS_P2;PMS_P1;PMS_P2;Temp;Humidity;BMP_temperature;BMP_pressure;BME280_temperature;BME280_humidity;BME280_pressure;Samples;Min_cycle;Max_cycle;Signal;HPM_P1;HPM_P2
2021/10/03 13:30:50;;;;;;;;;;;;;;;;;;5161034;27;19911;-63
2021/10/03 13:33:17;;;;;;;;;;;;;;;;;;5143982;27;20303;-63
2021/10/03 13:35:44;;;;;;;;;;;;;;;;;;5139057;27;19923;-61
2021/10/03 13:38:11;;;;;;;;;;;;;;;;;;5140053;27;19924;-61
2021/10/03 13:40:37;;;;;;;;;;;;;;;;;;5139100;27;19927;-61
2021/10/03 13:43:05;;;;;;;;;;;;;;;;;;5139108;27;19924;-61
2021/10/03 13:45:32;;;;;;;;;;;;;;;;;;5139474;27;19927;-59
2021/10/03 13:47:59;;;;;;;;;;;;;;;;;;5140586;27;19934;-63
2021/10/03 13:50:26;;;;;;;;;;;;;;;;;;5139803;27;20517;-60
2021/10/03 13:52:53;;;;;;;;;;;;;;;;;;5140266;27;19928;-60
2021/10/03 13:55:19;;;;;;;;;;;;;;;;;;5140048;27;19930;-60
2021/10/03 13:57:46;;;;;;;;;;;;;;;;;;5138941;27;19930;-57
2021/10/03 14:00:13;;;;;;;;;;;;;;;;;;5139914;27;19930;-59
2021/10/03 14:02:40;;;;;;;;;;;;;;;;;;5139252;27;19927;-60
2021/10/03 14:05:07;;;;;;;;;;;;;;;;;;5138130;27;19924;-61
2021/10/03 14:07:34;;;;;;;;;;;;;;;;;;5139142;27;19992;-60
2021/10/03 14:10:01;;;;;;;;;;;;;;;;;;5139019;27;19946;-59
2021/10/03 14:12:28;;;;;;;;;;;;;;;;;;5138518;27;19931;-62
2021/10/03 14:14:55;;;;;;;;;;;;;;;;;;5137688;27;19931;-60
2021/10/03 14:17:22;;;;;;;;;;;;;;;;;;5156424;22;19930;-59
2021/10/03 14:19:49;;;;;;;;;;;;;;;;;;5128434;27;19928;-61
2021/10/03 14:22:16;;;;;;;;;;;;;;;;;;5128245;28;19934;-60
2021/10/03 14:24:43;;;;;;;;;;;;;;;;;;5128186;28;19928;-61
2021/10/03 14:27:10;;;;;;;;;;;;;;;;;;5127878;28;20403;-59
2021/10/03 14:29:36;;;;;;;;;;;;;;;;;;5128071;27;19927;-57
2021/10/03 14:32:03;;;;;;;;;;;;;;;;;;5125592;27;19930;-57
2021/10/03 14:34:30;;;;;;;;;;;;;;;;;;5127681;28;20011;-59
2021/10/03 15:04:11;;;;;;;;;;;25.30;99.90;;;;;;5103491;27;1874;-73
2021/10/03 15:06:39;;;;;;;;;;;21.40;99.90;;;;;;5080849;28;1221;-63
2021/10/03 15:09:07;;;;;;;;;;;21.00;99.90;;;;;;5089129;28;1479;-62
2021/10/03 15:11:35;;;;;;;;;;;20.80;99.90;;;;;;5081699;28;1051;-61
2021/10/03 15:14:04;;;;;;;;;;;20.60;99.90;;;;;;5093122;28;1380;-61
2021/10/03 15:16:29;;;;;;;;;;;20.60;99.90;;;;;;5094134;28;1340;-61
2021/10/03 15:18:55;;;;;;;;;;;20.50;99.90;;;;;;5078822;28;1359;-61
2021/10/03 15:21:24;;;;;;;;;;;20.50;99.90;;;;;;5080254;28;922;-61
2021/10/03 15:23:51;;;;;;;;;;;20.50;99.90;;;;;;5078829;28;1975;-61
2021/10/03 15:26:16;;;;;;;;;;;20.50;99.90;;;;;;5086900;28;1068;-60
2021/10/03 15:28:44;;;;;;;;;;;20.50;99.90;;;;;;5077756;28;1095;-61
2021/10/03 15:31:10;;;;;;;;;;;20.50;99.90;;;;;;5073863;28;1634;-61
2021/10/03 15:33:36;;;;;;;;;;;20.50;99.90;;;;;;5083620;28;915;-61
2021/10/03 15:36:02;;;;;;;;;;;20.50;99.90;;;;;;5084653;28;1136;-61
2021/10/03 15:38:27;;;;;;;;;;;20.50;99.90;;;;;;5087948;28;1108;-61
2021/10/03 15:40:53;;;;;;;;;;;20.50;99.90;;;;;;5076589;28;1150;-60
2021/10/03 15:43:21;;;;;;;;;;;20.50;99.90;;;;;;5082681;28;1898;-60
2021/10/03 15:45:46;;;;;;;;;;;20.50;99.90;;;;;;5082164;28;1175;-60
2021/10/03 15:48:14;;;;;;;;;;;20.50;99.90;;;;;;5083079;28;1146;-62
2021/10/03 15:50:42;;;;;;;;;;;20.50;99.90;;;;;;5084249;28;1151;-63
2021/10/03 15:53:10;;;;;;;;;;;20.50;99.90;;;;;;5078974;28;1014;-63
2021/10/03 15:55:37;;;;;;;;;;;20.40;99.90;;;;;;5087522;28;1135;-60
2021/10/03 15:58:03;;;;;;;;;;;20.50;99.90;;;;;;5077537;28;1322;-60
2021/10/03 16:00:29;;;;;;;;;;;20.40;99.90;;;;;;5082617;28;1177;-61
2021/10/03 16:02:56;;;;;;;;;;;20.40;99.90;;;;;;5078734;28;1898;-61
2021/10/03 16:05:22;;;;;;;;;;;20.40;99.90;;;;;;5074133;28;930;-60
2021/10/03 16:07:47;;;;;;;;;;;20.40;99.90;;;;;;5115465;27;1213;-61
2021/10/03 16:10:15;;;;;;;;;;;20.40;99.90;;;;;;5115238;27;1209;-60
2021/10/03 16:12:44;;;;;;;;;;;20.40;99.90;;;;;;5089715;28;1607;-60
2021/10/03 16:15:11;;;;;;;;;;;20.40;99.90;;;;;;5078704;28;997;-61
2021/10/03 16:17:37;;;;;;;;;;;20.30;99.90;;;;;;5078867;28;1086;-64
2021/10/03 16:20:05;;;;;;;;;;;20.40;99.90;;;;;;5064925;28;938;-60
2021/10/03 16:22:33;;;;;;;;;;;20.40;99.90;;;;;;5069808;28;1914;-60
2021/10/03 16:24:59;;;;;;;;;;;20.40;99.90;;;;;;5080747;28;1232;-60
2021/10/03 16:27:24;;;;;;;;;;;20.40;99.90;;;;;;5066046;28;1580;-61
2021/10/03 16:29:52;;;;;;;;;;;20.40;99.90;;;;;;5103068;27;1257;-63
2021/10/03 16:32:18;;;;;;;;;;;20.50;99.90;;;;;;5101864;27;1463;-59
2021/10/03 16:34:46;;;;;;;;;;;20.50;99.90;;;;;;5071028;28;1202;-62
2021/10/03 16:37:14;;;;;;;;;;;20.50;99.90;;;;;;5099484;27;1273;-63
2021/10/03 16:39:41;;;;;;;;;;;20.40;99.90;;;;;;5070726;28;1174;-63
2021/10/03 16:42:09;;;;;;;;;;;20.40;99.90;;;;;;5063896;28;1965;-67
2021/10/03 16:44:37;;;;;;;;;;;20.50;99.90;;;;;;5107010;27;1232;-67
2021/10/03 16:47:03;;;;;;;;;;;20.50;99.90;;;;;;5070627;28;1136;-67
2021/10/03 16:49:31;;;;;;;;;;;20.50;99.90;;;;;;5062386;28;1078;-67
2021/10/03 16:52:01;;;;;;;;;;;20.50;99.90;;;;;;5071052;28;986;-62
2021/10/03 16:54:26;;;;;;;;;;;20.50;99.90;;;;;;5082198;28;1160;-62
2021/10/03 16:56:57;;;;;;;;;;;20.60;99.90;;;;;;5070342;28;1401;-62
2021/10/03 16:59:22;;;;;;;;;;;20.60;99.90;;;;;;5063961;28;1179;-62
2021/10/03 17:01:49;;;;;;;;;;;20.60;99.90;;;;;;5068428;28;1905;-61
2021/10/03 17:04:17;;;;;;;;;;;20.60;99.90;;;;;;5063282;28;1133;-62
2021/10/03 17:06:42;;;;;;;;;;;20.60;99.90;;;;;;5068240;28;1225;-62
2021/10/03 17:09:08;;;;;;;;;;;20.60;99.90;;;;;;5069812;28;1138;-62
2021/10/03 17:11:34;;;;;;;;;;;20.70;99.90;;;;;;5067005;28;1214;-62
2021/10/03 17:14:02;;;;;;;;;;;20.70;99.90;;;;;;5104158;28;1497;-62
2021/10/03 17:16:29;;;;;;;;;;;20.60;99.90;;;;;;5061454;28;1050;-62
2021/10/03 17:18:55;;;;;;;;;;;20.60;99.90;;;;;;5067280;28;1274;-62
2021/10/03 17:21:21;;;;;;;;;;;20.70;99.90;;;;;;5072293;28;1286;-62
2021/10/03 17:23:46;;;;;;;;;;;20.70;99.90;;;;;;5069217;28;1963;-63
2021/10/03 17:26:14;;;;;;;;;;;20.70;99.90;;;;;;5068143;28;1191;-63
2021/10/03 17:28:40;;;;;;;;;;;20.70;99.90;;;;;;5062384;28;1215;-62
2021/10/03 17:31:06;;;;;;;;;;;20.70;99.90;;;;;;5066640;28;1183;-62
2021/10/03 17:33:35;;;;;;;;;;;20.70;99.90;;;;;;5085013;28;1174;-63
2021/10/03 17:36:03;;;;;;;;;;;20.70;99.90;;;;;;5062642;28;1443;-63
2021/10/03 17:38:33;;;;;;;;;;;20.70;99.90;;;;;;5069214;28;1553;-62
2021/10/03 17:40:59;;;;;;;;;;;20.70;99.90;;;;;;5068357;28;1161;-63
2021/10/03 17:43:27;;;;;;;;;;;20.70;99.90;;;;;;5104299;28;1902;-63
2021/10/03 17:45:53;;;;;;;;;;;20.70;99.90;;;;;;5066559;28;1405;-63
2021/10/03 17:48:18;;;;;;;;;;;20.70;99.90;;;;;;5065960;28;1085;-62
2021/10/03 17:50:45;;;;;;;;;;;20.70;99.90;;;;;;5080533;28;1083;-62
2021/10/03 17:53:13;;;;;;;;;;;20.70;99.90;;;;;;5069928;28;1183;-62
2021/10/03 17:55:38;;;;;;;;;;;20.70;99.90;;;;;;5065851;28;1253;-63
2021/10/03 17:58:04;;;;;;;;;;;20.70;99.90;;;;;;5067854;28;1069;-63
2021/10/03 18:00:32;;;;;;;;;;;20.70;99.90;;;;;;5069486;28;958;-62
2021/10/03 18:03:00;;;;;;;;;;;20.70;99.90;;;;;;5069264;28;1902;-62
2021/10/03 18:05:25;;;;;;;;;;;20.70;99.90;;;;;;5068457;28;938;-66
2021/10/03 18:07:54;;;;;;;;;;;20.70;99.90;;;;;;5076223;28;987;-62
2021/10/03 18:10:20;;;;;;;;;;;20.80;99.90;;;;;;5080957;28;982;-60
2021/10/03 18:12:46;;;;;;;;;;;20.80;99.90;;;;;;5074045;28;981;-62
2021/10/03 18:15:12;;;;;;;;;;;20.80;99.90;;;;;;5063536;28;935;-61
2021/10/03 18:17:41;;;;;;;;;;;20.70;99.90;;;;;;5066225;28;1132;-62
2021/10/03 18:20:10;;;;;;;;;;;20.70;99.90;;;;;;5067502;28;983;-61
2021/10/03 18:22:36;;;;;;;;;;;20.70;99.90;;;;;;5070854;28;1980;-62
2021/10/03 18:25:04;;;;;;;;;;;20.80;99.90;;;;;;5068401;28;1343;-62
2021/10/03 18:27:30;;;;;;;;;;;20.70;99.90;;;;;;5066754;28;1478;-62
2021/10/03 18:29:55;;;;;;;;;;;20.80;99.90;;;;;;5066257;28;1413;-62
2021/10/03 18:32:21;;;;;;;;;;;20.70;99.90;;;;;;5073557;28;1147;-61
2021/10/03 18:34:47;;;;;;;;;;;20.80;99.90;;;;;;5068067;28;1144;-61
2021/10/03 18:37:13;;;;;;;;;;;20.80;99.90;;;;;;5074418;28;1179;-61
2021/10/03 18:39:43;;;;;;;;;;;20.80;99.90;;;;;;5068625;28;1195;-62
2021/10/03 18:42:08;;;;;;;;;;;20.80;99.90;;;;;;5065338;28;1953;-61
2021/10/03 18:44:36;;;;;;;;;;;20.80;99.90;;;;;;5062977;28;1144;-62
2021/10/03 18:47:04;;;;;;;;;;;20.80;99.90;;;;;;5067487;28;1190;-62
2021/10/03 18:49:29;;;;;;;;;;;20.80;99.90;;;;;;5064596;28;974;-61
2021/10/03 18:51:55;;;;;;;;;;;20.80;99.90;;;;;;5069976;28;1050;-61
2021/10/03 18:54:21;;;;;;;;;;;20.80;99.90;;;;;;5095417;28;1135;-62
2021/10/03 18:56:46;;;;;;;;;;;20.80;99.90;;;;;;5058954;28;927;-61
2021/10/03 18:59:14;;;;;;;;;;;20.80;99.90;;;;;;5071366;28;1127;-62
2021/10/03 19:01:43;;;;;;;;;;;20.80;99.90;;;;;;5066091;28;1202;-61
2021/10/03 19:04:09;;;;;;;;;;;20.80;99.90;;;;;;5058599;28;1959;-62
2021/10/03 19:06:36;;;;;;;;;;;20.80;99.90;;;;;;5069745;28;1269;-61
2021/10/03 19:09:04;;;;;;;;;;;20.80;99.90;;;;;;5066351;28;943;-62
2021/10/03 19:11:29;;;;;;;;;;;20.80;99.90;;;;;;5056432;28;931;-61
2021/10/03 19:13:55;;;;;;;;;;;20.80;99.90;;;;;;5100372;28;918;-62
2021/10/03 19:16:21;;;;;;;;;;;20.80;99.90;;;;;;5092012;28;977;-61
2021/10/03 19:18:49;;;;;;;;;;;20.80;99.90;;;;;;5071098;28;938;-61
2021/10/03 19:21:20;;;;;;;;;;;20.80;99.90;;;;;;5106319;28;938;-61
2021/10/03 19:23:46;;;;;;;;;;;20.80;99.90;;;;;;5058413;28;1971;-62
2021/10/03 19:26:12;;;;;;;;;;;20.80;99.90;;;;;;5076297;28;1448;-62
2021/10/03 19:28:40;;;;;;;;;;;20.80;99.90;;;;;;5067416;28;919;-61
2021/10/03 19:31:06;;;;;;;;;;;20.80;99.90;;;;;;5064393;28;961;-62
2021/10/03 19:33:34;;;;;;;;;;;20.80;99.90;;;;;;5057994;28;1124;-61
2021/10/03 19:36:00;;;;;;;;;;;20.80;99.90;;;;;;5058166;28;1104;-62
2021/10/03 19:38:28;;;;;;;;;;;20.80;99.90;;;;;;5072125;28;1088;-62
2021/10/03 19:40:53;;;;;;;;;;;20.80;99.90;;;;;;5073839;28;1199;-62
2021/10/03 19:43:24;;;;;;;;;;;20.80;99.90;;;;;;5065889;28;1905;-59
2021/10/03 19:45:56;;;;;;;;;;;20.80;99.90;;;;;;5069591;28;1487;-59
2021/10/03 19:48:23;;;;;;;;;;;20.80;99.90;;;;;;5062913;28;1204;-62
2021/10/03 19:50:49;;;;;;;;;;;20.80;99.90;;;;;;5063007;28;946;-62
2021/10/03 19:53:15;;;;;;;;;;;20.80;99.90;;;;;;5072141;28;1135;-60
2021/10/03 19:55:41;;;;;;;;;;;20.80;99.90;;;;;;5105360;27;1399;-61
2021/10/03 19:58:09;;;;;;;;;;;20.80;99.90;;;;;;5065338;28;1861;-61
2021/10/03 20:00:35;;;;;;;;;;;20.80;99.90;;;;;;5098917;28;1210;-60
2021/10/03 20:03:03;;;;;;;;;;;20.90;99.90;;;;;;5063570;28;1961;-61
2021/10/03 20:05:34;;;;;;;;;;;20.80;99.90;;;;;;5095420;28;1154;-61
2021/10/03 20:07:59;;;;;;;;;;;20.80;99.90;;;;;;5068146;28;931;-61
2021/10/03 20:10:27;;;;;;;;;;;20.80;99.90;;;;;;5072072;28;1138;-61
2021/10/03 20:12:55;;;;;;;;;;;20.80;99.90;;;;;;5089714;28;1133;-59
2021/10/03 20:15:21;;;;;;;;;;;20.70;99.90;;;;;;5074075;28;1125;-60
2021/10/03 20:17:46;;;;;;;;;;;20.00;99.90;;;;;;5077016;28;1273;-59
2021/10/03 20:20:14;;;;;;;;;;;19.50;99.90;;;;;;5069978;28;1081;-59
2021/10/03 20:22:40;;;;;;;;;;;19.30;99.90;;;;;;5068517;28;1902;-59
2021/10/03 20:25:09;;;;;;;;;;;19.10;99.90;;;;;;5075108;28;1209;-59
2021/10/03 20:27:38;;;;;;;;;;;19.00;99.90;;;;;;5068318;28;1528;-60
2021/10/03 20:30:04;;;;;;;;;;;18.90;99.90;;;;;;5065689;28;1517;-60
2021/10/03 20:32:32;;;;;;;;;;;18.70;99.90;;;;;;5070883;28;1137;-59
2021/10/03 20:34:58;;;;;;;;;;;18.70;99.90;;;;;;5078299;28;1162;-59
2021/10/03 20:37:26;;;;;;;;;;;18.70;99.90;;;;;;5070612;28;994;-58
2021/10/03 20:39:51;;;;;;;;;;;18.50;99.90;;;;;;5062442;28;1277;-58
2021/10/03 20:42:19;;;;;;;;;;;18.60;99.90;;;;;;5070261;28;1894;-60
2021/10/03 20:44:53;;;;;;;;;;;18.50;99.90;;;;;;5072337;28;978;-60
2021/10/03 20:47:19;;;;;;;;;;;18.70;99.90;;;;;;5063735;28;1363;-60
2021/10/03 20:49:45;;;;;;;;;;;19.10;99.90;;;;;;5069821;28;1135;-62
2021/10/03 20:52:13;;;;;;;;;;;19.40;99.90;;;;;;5066254;28;1129;-61
2021/10/03 20:54:41;;;;;;;;;;;19.60;99.90;;;;;;5058647;28;968;-60
2021/10/03 20:57:07;;;;;;;;;;;19.70;99.90;;;;;;5061681;28;927;-60
2021/10/03 20:59:33;;;;;;;;;;;19.90;99.90;;;;;;5081778;28;947;-60
2021/10/03 21:01:58;;;;;;;;;;;19.90;99.90;;;;;;5109285;27;1917;-59
2021/10/03 21:04:24;;;;;;;;;;;20.00;99.90;;;;;;5072795;28;1015;-59
2021/10/03 21:06:50;;;;;;;;;;;20.00;99.90;;;;;;5073427;28;1148;-60
2021/10/03 21:09:17;;;;;;;;;;;20.10;99.90;;;;;;5074147;28;1332;-59
2021/10/03 21:11:43;;;;;;;;;;;20.10;99.90;;;;;;5072224;28;1070;-60
2021/10/03 21:14:09;;;;;;;;;;;20.10;99.90;;;;;;5072099;28;1372;-60
2021/10/03 21:16:36;;;;;;;;;;;20.10;99.90;;;;;;5075559;28;1320;-60
2021/10/03 21:19:05;;;;;;;;;;;20.10;99.90;;;;;;5079853;28;1111;-61
2021/10/03 21:21:33;;;;;;;;;;;20.20;99.90;;;;;;5065122;28;994;-60
2021/10/03 21:24:00;;;;;;;;;;;20.30;99.90;;;;;;5067955;28;1956;-61
2021/10/03 21:26:28;;;;;;;;;;;20.30;99.90;;;;;;5062794;28;1218;-61
2021/10/03 21:28:56;;;;;;;;;;;20.30;99.90;;;;;;5067458;28;1049;-60
2021/10/03 21:31:26;;;;;;;;;;;20.30;99.90;;;;;;5060054;28;930;-60
2021/10/03 21:33:54;;;;;;;;;;;20.30;99.90;;;;;;5061161;28;963;-61
2021/10/03 21:36:19;;;;;;;;;;;20.30;99.90;;;;;;5071325;28;922;-61
2021/10/03 21:38:45;;;;;;;;;;;20.40;99.90;;;;;;5063955;28;964;-59
2021/10/03 21:41:10;;;;;;;;;;;20.40;99.90;;;;;;5067427;28;977;-60
2021/10/03 21:43:41;;;;;;;;;;;20.40;99.90;;;;;;5081827;28;1952;-61
2021/10/03 21:46:08;;;;;;;;;;;20.40;99.90;;;;;;5069247;28;984;-60
2021/10/03 21:48:38;;;;;;;;;;;20.40;99.90;;;;;;5063264;28;1187;-61
2021/10/03 21:51:03;;;;;;;;;;;20.50;99.90;;;;;;5064088;28;1202;-60
2021/10/03 21:53:29;;;;;;;;;;;20.50;99.90;;;;;;5099484;28;1159;-60
2021/10/03 21:55:57;;;;;;;;;;;20.50;99.90;;;;;;5067062;28;1607;-60
2021/10/03 21:58:22;;;;;;;;;;;20.50;99.90;;;;;;5072058;28;926;-60
2021/10/03 22:00:52;;;;;;;;;;;20.50;99.90;;;;;;5062937;28;778;-61
2021/10/03 22:03:21;;;;;;;;;;;20.50;99.90;;;;;;5081677;28;1910;-59
2021/10/03 22:05:47;;;;;;;;;;;20.50;99.90;;;;;;5065465;28;942;-60
2021/10/03 22:08:12;;;;;;;;;;;20.50;99.90;;;;;;5072459;28;1460;-60
2021/10/03 22:10:38;;;;;;;;;;;20.50;99.90;;;;;;5062579;28;1128;-60
2021/10/03 22:13:06;;;;;;;;;;;20.50;99.90;;;;;;5075243;28;1166;-60
2021/10/03 22:15:32;;;;;;;;;;;20.50;99.90;;;;;;5066473;28;1284;-60
2021/10/03 22:18:00;;;;;;;;;;;20.50;99.90;;;;;;5068185;28;1122;-60
2021/10/03 22:20:25;;;;;;;;;;;20.50;99.90;;;;;;5060896;28;1856;-59
2021/10/03 22:22:51;;;;;;;;;;;20.60;99.90;;;;;;5069119;28;1898;-60
2021/10/03 22:25:19;;;;;;;;;;;20.60;99.90;;;;;;5070276;28;1377;-61
2021/10/03 22:27:44;;;;;;;;;;;20.60;99.90;;;;;;5102947;28;1207;-61
2021/10/03 22:30:10;;;;;;;;;;;20.60;99.90;;;;;;5069751;28;1207;-61
2021/10/03 22:32:38;;;;;;;;;;;20.60;99.90;;;;;;5099912;28;1274;-60
2021/10/03 22:35:03;;;;;;;;;;;20.60;99.90;;;;;;5068741;28;1686;-60
2021/10/03 22:37:29;;;;;;;;;;;20.60;99.90;;;;;;5072248;28;1005;-60
2021/10/03 22:39:57;;;;;;;;;;;20.60;99.90;;;;;;5071348;28;1009;-59
2021/10/03 22:42:23;;;;;;;;;;;20.60;99.90;;;;;;5098672;28;1967;-59
2021/10/03 22:44:49;;;;;;;;;;;20.60;99.90;;;;;;5067769;28;1299;-60
2021/10/03 22:47:16;;;;;;;;;;;20.60;99.90;;;;;;5072616;28;1068;-60
2021/10/03 22:49:42;;;;;;;;;;;20.60;99.90;;;;;;5068088;28;1783;-60
2021/10/03 22:52:08;;;;;;;;;;;20.50;99.90;;;;;;5068856;28;1662;-56
